Latest Coastal Weather Observations for Williamtown

IDN60701

Issued at 9:11 am EST Friday 14 August 2020 (issued every 10 minutes, with the page automatically refreshed every 10 minutes)

About coastal observations | Map of coastal stations | Coastal observations for NSW | Marine services | Other Formats
Station Details ID: 061078 Name: WILLIAMTOWN RAAF Lat: -32.79 Lon: 151.84 Height: 7.5 m
Data from the previous 72 hours. | See also: Recent months at Williamtown
Date/Time
EST
Wind Sea
Height
m
Swell Vis
km
Cloud Weather Temp
°C
Press
hPa
Rain since
9am
mm
Dir  Spd
kts
Gust
kts
Height
m
Period
s
Dir
14/09:00am WNW 5 6 - - - - 10 Cloudy - 13.4 1015.9 0.0
14/08:30am NW 5 6 - - - - 10 - - 12.4 1015.5 0.0
14/08:00am CALM 0 0 - - - - 10 - - 11.7 1015.8 0.0
14/07:30am CALM 0 0 - - - - 10 Cloudy - 11.3 1015.9 0.0
14/07:00am NNW 4 5 - - - - 10 Cloudy - 11.0 1015.7 0.0
14/06:30am NW 5 7 - - - - 10 Cloudy - 9.8 1015.5 0.0
14/06:00am WNW 1 5 - - - - 10 Mostly cloudy - 9.9 1014.8 0.0
14/05:30am CALM 0 0 - - - - 10 Partly cloudy - 9.7 1015.3 0.0
14/05:00am CALM 0 4 - - - - 10 Cloudy - 11.0 1014.9 0.0
14/04:30am NE 1 4 - - - - 10 Cloudy - 11.4 1014.9 0.0
14/04:00am NNW 3 4 - - - - 10 Cloudy - 11.0 1015.0 0.0
14/03:30am ENE 5 6 - - - - 10 Cloudy - 11.3 1014.7 0.0
14/03:00am NNW 1 4 - - - - 10 Cloudy - 11.3 1015.0 0.0
14/02:30am WNW 3 4 - - - - 10 Cloudy - 10.5 1015.3 0.0
14/02:00am NW 5 7 - - - - 10 Cloudy - 10.1 1015.4 0.0
14/01:30am CALM 0 0 - - - - 10 Partly cloudy - 9.9 1015.5 0.0
14/01:00am CALM 0 0 - - - - 10 Partly cloudy - 10.5 1015.8 0.0
14/12:30am CALM 0 0 - - - - 10 Partly cloudy - 10.5 1015.8 0.0
14/12:00am CALM 0 0 - - - - 10 Mostly clear - 10.8 1015.9 0.0
 
Date/Time
EST
Wind Sea
Height
m
Swell Vis
km
Cloud Weather Temp
°C
Press
hPa
Rain since
9am
mm
Dir  Spd
kts
Gust
kts
Height
m
Period
s
Dir
13/11:30pm CALM 0 0 - - - - 10 Partly cloudy - 11.0 1016.0 0.0
13/11:00pm CALM 0 0 - - - - 10 Partly cloudy - 11.2 1016.1 0.0
13/10:30pm CALM 0 0 - - - - 10 Cloudy - 11.7 1016.3 0.0
13/10:00pm CALM 0 0 - - - - 10 Cloudy - 11.8 1016.3 0.0
13/09:30pm NNE 1 4 - - - - 10 Cloudy - 12.4 1016.2 0.0
13/09:00pm NNE 3 5 - - - - 10 Partly cloudy - 14.0 1016.1 0.0
13/08:30pm N 3 5 - - - - 10 Partly cloudy - 13.8 1016.0 0.0
13/08:00pm N 5 6 - - - - 10 Partly cloudy - 14.7 1015.5 0.0
13/07:30pm N 5 7 - - - - 10 Partly cloudy - 14.5 1015.0 0.0
13/07:00pm N 7 8 - - - - 10 Mostly clear - 15.0 1014.7 0.0
13/06:30pm NNE 3 4 - - - - 10 Mostly clear - 14.8 1014.2 0.0
13/06:00pm ENE 6 8 - - - - 10 Mostly clear - 16.8 1013.8 0.0
13/05:30pm ESE 6 8 - - - - 10 Mostly clear - 17.5 1013.4 0.0
13/05:00pm E 5 7 - - - - 10 Mostly clear - 18.3 1013.2 0.0
13/04:30pm SE 7 9 - - - - 10 Mostly clear - 18.9 1012.9 0.0
13/04:00pm SE 8 9 - - - - 10 Partly cloudy - 19.3 1012.8 0.0
13/03:30pm ESE 8 10 - - - - 10 Partly cloudy - 19.5 1012.9 0.0
13/03:00pm SE 8 9 - - - - 10 Partly cloudy - 19.4 1012.8 0.0
13/02:30pm SE 9 11 - - - - 10 Mostly clear - 20.1 1012.7 0.0
13/02:00pm SE 9 11 - - - - 10 Mostly clear - 20.7 1012.6 0.0
13/01:30pm SW 9 14 - - - - 10 Mostly clear - 21.5 1012.6 0.0
13/01:00pm W 7 13 - - - - 10 Mostly clear - 21.8 1012.7 0.0
13/12:30pm WNW 8 10 - - - - 10 Mostly clear - 21.0 1013.1 0.0
13/12:00pm W 9 13 - - - - 10 Mostly clear - 20.5 1013.6 0.0
13/11:30am W 10 13 - - - - 10 - - 20.3 1013.9 0.0
13/11:00am WNW 13 16 - - - - 10 - - 19.6 1014.0 0.0
13/10:30am WNW 10 15 - - - - 10 - - 18.9 1014.4 0.0
13/10:00am NW 8 11 - - - - 10 - - 17.9 1014.7 0.0
13/09:30am WNW 7 8 - - - - 10 - - 16.7 1014.7 0.0
13/09:00am NW 9 11 - - - - 10 - - 15.8 1014.9 1.2
13/08:30am NW 8 9 - - - - 10 - - 14.8 1014.6 1.2
13/08:00am WNW 7 8 - - - - 10 - - 13.5 1014.4 1.2
13/07:30am WNW 5 5 - - - - 10 - - 11.8 1014.2 1.2
13/07:00am NNW 5 6 - - - - 10 - - 10.7 1013.7 1.2
13/06:30am NNW 5 6 - - - - 10 - - 10.8 1013.3 1.2
13/06:00am NNW 6 7 - - - - 10 Clear - 11.1 1013.0 1.2
13/05:30am WNW 8 9 - - - - 10 Partly cloudy - 11.4 1012.8 1.2
13/05:00am WNW 7 9 - - - - 10 Partly cloudy - 10.9 1012.8 1.2
13/04:30am WSW 8 15 - - - - 10 Partly cloudy - 10.9 1012.5 1.2
13/04:00am NW 5 6 - - - - 10 Cloudy - 10.5 1011.7 1.2
13/03:30am N 2 5 - - - - 10 Partly cloudy - 10.8 1011.9 1.2
13/03:00am NW 7 9 - - - - 10 Cloudy Recent precip. 10.7 1012.2 1.0
13/02:30am WNW 6 8 - - - - 10 Partly cloudy - 9.7 1012.4 1.0
13/02:00am NW 6 8 - - - - 10 - - 10.9 1012.4 0.8
13/01:33am NW 6 7 - - - - 8 - - 10.2 1012.8 0.8
13/01:30am NW 6 7 - - - - 8 - - 10.2 1012.8 0.8
13/01:00am NW 5 6 - - - - 5 Partly cloudy - 9.5 1012.7 0.8
13/12:57am NW 5 6 - - - - 5 Partly cloudy - 9.4 1012.7 0.8
13/12:30am WSW 4 5 - - - - 1 Partly cloudy - 8.4 1012.7 0.8
13/12:28am W 4 5 - - - - 2 Partly cloudy - 8.6 1012.7 0.8
13/12:17am WNW 3 4 - - - - 5 Partly cloudy - 8.7 1012.7 0.8
13/12:00am CALM 0 0 - - - - 10 - - 9.6 1012.9 0.8
 
Date/Time
EST
Wind Sea
Height
m
Swell Vis
km
Cloud Weather Temp
°C
Press
hPa
Rain since
9am
mm
Dir  Spd
kts
Gust
kts
Height
m
Period
s
Dir
12/11:30pm NW 4 5 - - - - 10 - - 9.8 1013.1 0.8
12/11:00pm CALM 0 0 - - - - 10 Partly cloudy - 10.4 1013.3 0.8
12/10:30pm CALM 0 2 - - - - 10 - - 10.3 1013.3 0.8
12/10:00pm NNE 2 4 - - - - 10 - - 11.3 1013.2 0.8
12/09:30pm ESE 3 5 - - - - 10 - - 13.1 1013.3 0.8
12/09:00pm SW 5 7 - - - - 10 Mostly cloudy Rain 12.9 1013.5 0.8
12/08:46pm SSW 6 9 - - - - 10 Mostly clear - 14.0 1013.5 0.8
12/08:30pm ENE 9 14 - - - - 10 Mostly clear Thunderstorm 14.3 1013.1 0.8
12/08:16pm WSW 14 28 - - - - 5 Mostly clear Thunderstorm 15.5 1014.0 0.2
12/08:07pm SW 17 27 - - - - 10 Mostly clear Thunderstorm 15.4 1014.4 0.0
12/08:00pm WSW 11 27 - - - - 10 Mostly clear - 14.6 1013.9 0.0
12/07:59pm SW 8 24 - - - - 10 Mostly clear Thunder 14.2 1013.9 0.0
12/07:30pm CALM 0 0 - - - - 10 Mostly clear - 13.4 1012.7 0.0
12/07:00pm CALM 0 0 - - - - 10 Mostly clear - 13.7 1012.6 0.0
12/06:30pm CALM 0 0 - - - - 10 Mostly clear - 14.1 1012.6 0.0
12/06:00pm SSE 3 6 - - - - 10 Cloudy - 15.2 1012.1 0.0
12/05:30pm S 1 3 - - - - 10 Mostly clear - 15.3 1012.5 0.0
12/05:00pm SSW 4 5 - - - - 10 Mostly clear - 15.7 1012.3 0.0
12/04:30pm CALM 0 1 - - - - 10 Mostly clear - 17.3 1012.2 0.0
12/04:00pm E 4 6 - - - - 10 Mostly clear - 17.3 1012.0 0.0
12/03:30pm ENE 2 4 - - - - 10 Mostly clear - 16.9 1012.2 0.0
12/03:00pm ENE 2 5 - - - - 10 Cloudy - 16.5 1012.4 0.0
12/02:30pm N 4 5 - - - - 10 Mostly clear - 16.3 1012.8 0.0
12/02:00pm NNW 4 6 - - - - 10 Partly cloudy - 16.2 1013.2 0.0
12/01:30pm NNW 5 7 - - - - 10 Cloudy - 15.4 1013.6 0.0
12/01:00pm NW 5 7 - - - - 10 Cloudy - 15.6 1014.0 0.0
12/12:30pm NW 6 8 - - - - 10 Cloudy - 15.3 1014.6 0.0
12/12:00pm NW 5 7 - - - - 10 Cloudy - 14.9 1015.1 0.0
12/11:30am NW 5 6 - - - - 10 Cloudy - 14.6 1015.8 0.0
12/11:00am NW 6 8 - - - - 10 - - 14.7 1016.4 0.0
12/10:30am NNW 5 7 - - - - 10 - - 14.7 1016.6 0.0
12/10:00am NW 2 5 - - - - 10 - - 13.5 1017.2 0.0
12/09:30am WNW 4 6 - - - - 10 - - 12.5 1017.4 0.0
12/09:00am NW 4 6 - - - - 10 Cloudy - 11.6 1017.6 0.0
12/08:30am WNW 3 5 - - - - 10 - - 10.8 1017.7 0.0
12/08:00am WNW 4 4 - - - - 10 - - 10.1 1017.7 0.0
12/07:30am CALM 0 0 - - - - 10 - - 9.5 1017.4 0.0
12/07:00am CALM 0 0 - - - - 10 - - 9.1 1017.2 0.0
12/06:30am N 5 6 - - - - 10 - - 10.0 1016.9 0.0
12/06:00am N 5 6 - - - - 10 Cloudy - 10.0 1016.9 0.0
12/05:30am NNE 5 7 - - - - 10 - - 10.3 1016.6 0.0
12/05:00am NNE 2 5 - - - - 10 - - 9.6 1016.8 0.0
12/04:30am NNE 5 6 - - - - 10 - - 10.3 1016.6 0.0
12/04:00am NNE 5 6 - - - - 10 - - 10.1 1016.8 0.0
12/03:30am N 6 7 - - - - 10 - - 10.1 1016.9 0.0
12/03:00am NNW 2 5 - - - - 10 Cloudy - 8.8 1017.1 0.0
12/02:30am ENE 5 6 - - - - 10 - - 8.7 1017.1 0.0
12/02:00am ENE 4 5 - - - - 10 - - 8.5 1017.7 0.0
12/01:30am CALM 0 0 - - - - 10 - - 7.9 1018.2 0.0
12/01:10am E 3 4 - - - - 10 - - 8.5 1018.5 0.0
12/01:00am CALM 0 0 - - - - 6 - - 8.4 1018.4 0.0
12/12:30am CALM 0 3 - - - - 3 - - 7.6 1018.8 0.0
12/12:00am NNW 2 5 - - - - 10 Cloudy - 8.1 1018.6 0.0
 
Date/Time
EST
Wind Sea
Height
m
Swell Vis
km
Cloud Weather Temp
°C
Press
hPa
Rain since
9am
mm
Dir  Spd
kts
Gust
kts
Height
m
Period
s
Dir
11/11:30pm NW 4 5 - - - - 10 - - 7.6 1018.5 0.0
11/11:00pm NNW 3 4 - - - - 10 - - 8.2 1018.2 0.0
11/10:30pm CALM 0 0 - - - - 10 - - 8.2 1018.3 0.0
11/10:00pm CALM 0 0 - - - - 10 - - 8.6 1018.8 0.0
11/09:30pm CALM 0 0 - - - - 10 - - 8.3 1019.1 0.0
11/09:00pm CALM 0 0 - - - - 10 - - 8.5 1019.4 0.0
11/08:30pm CALM 0 0 - - - - 10 - - 9.2 1019.4 0.0
11/08:00pm CALM 0 0 - - - - 10 Mostly clear - 9.7 1019.2 0.0
11/07:30pm N 3 4 - - - - 10 - - 9.6 1019.3 0.0
11/07:00pm ENE 4 5 - - - - 10 - - 11.4 1018.9 0.0
11/06:30pm CALM 0 0 - - - - 10 - - 11.3 1018.6 0.0
11/06:00pm SE 4 5 - - - - 10 - - 12.4 1018.4 0.0
11/05:30pm SE 3 4 - - - - 10 Mostly clear - 14.6 1018.3 0.0
11/05:00pm SSE 4 5 - - - - 10 Mostly clear - 15.2 1018.2 0.0
11/04:30pm SSE 7 8 - - - - 10 Mostly clear - 15.9 1018.3 0.0
11/04:00pm SSE 7 9 - - - - 10 Mostly clear - 16.3 1018.3 0.0
11/03:30pm S 8 9 - - - - 10 Mostly clear - 16.4 1018.3 0.0
11/03:00pm S 7 9 - - - - 10 Cloudy - 16.2 1018.4 0.0
11/02:30pm S 8 10 - - - - 10 Mostly clear - 16.2 1018.4 0.0
11/02:00pm SSE 11 14 - - - - 10 Mostly clear - 16.2 1018.2 0.0
11/01:30pm S 10 14 - - - - 10 Partly cloudy - 16.3 1018.4 0.0
11/01:00pm SSE 9 13 - - - - 10 Partly cloudy - 16.3 1019.0 0.0
11/12:30pm S 8 11 - - - - 10 Mostly clear - 16.9 1019.5 0.0
11/12:00pm S 9 14 - - - - 10 Mostly clear - 16.3 1019.9 0.0
11/11:30am S 9 14 - - - - 10 Partly cloudy - 16.4 1020.2 0.0
11/11:00am SSW 8 11 - - - - 10 Partly cloudy - 16.2 1020.7 0.0
11/10:30am SW 7 10 - - - - 10 Mostly clear - 15.7 1020.9 0.0
11/10:00am WSW 8 12 - - - - 10 Mostly clear - 14.8 1020.8 0.0
11/09:30am WSW 7 10 - - - - 10 Mostly clear - 14.3 1020.9 0.0

Other formats

Comma delimited format used in spreadsheet applications
http://www.bom.gov.au/fwo/IDN60701/IDN60701.94776.axf

JavaScript Object Notation format (JSON) in row-major order
http://www.bom.gov.au/fwo/IDN60701/IDN60701.94776.json

Data quality

Most of these data are generated automatically and are frequently updated. Quality checks on data are not normally performed. It is possible for incorrect values to appear. Refer to information at About Latest Weather Observations and please check the disclaimer before using these data.